メインページ
METAR-TAF:

METAR-TAF

空港 :

ヴィエンチャン, ラオス

ワットタイ国際空港

緯度: 17-57N, 経度: 102-34E, 海抜: 171m

現時点の気象観測

当レポートは1時間22分前の16:00(UTC)に作成
南東の風 4kt
気温 26°C
湿度 74%
気圧 1012 hPa
視程: 3000m
高度5000ftの雲はほとんどない

METAR: VLVT 251600Z 14004KT 3000 BR FEW050 26/21 Q1012 NOSIG

時間: 00:22 (17:22 UTC)

予報

当レポートは6時間22分前の11:00(UTC)に作成
予報は25日の 12時(UTC)から 26日の 12時(UTC)まで有効
南東の風 4kt
視程: 4000m
高度2300ftの雲はほとんどない, 積乱雲.
高度5000ftの雲は散在している
高度8300ftの千切れ雲あり
激しい雷雨, 雨

TAF: VLVT 251100Z 2512/2612 14004KT 4000 TSRA FEW023CB SCT050 BKN083

4,000以上の空港の気象観測と天気予報(METAR報とTAF報)

利用可能な観測所は地図上に黄色い丸と赤い丸で示す。

丸の上にカーソルを重ねると観測所名を参照できる。

次にクリックすると気象観測と天気予報を参照できる。

マップの切り替え:黒色「×」印の緑ボタンをクリックして拡大、「-」印の緑ボタンをクリックして縮小、緑色の三角印をクリックして隣りの地図に切り替え


METAR-TAF: